Time;durP1;ratioP1;P1;durP2;ratioP2;P2;SDS_P1;SDS_P2;PMS_P1;PMS_P2;Temp;Humidity;BMP_temperature;BMP_pressure;BME280_temperature;BME280_humidity;BME280_pressure;Samples;Min_cycle;Max_cycle;Signal;HPM_P1;HPM_P2
2022/03/30 00:01:00;;;;;;;9.70;3.38;;;;;;;;;;5074253;28;20020;-69
2022/03/30 00:03:26;;;;;;;16.63;3.20;;;;;;;;;;5079863;28;20028;-68
2022/03/30 00:05:52;;;;;;;14.75;3.35;;;;;;;;;;5080336;28;20073;-69
2022/03/30 00:08:18;;;;;;;12.48;2.85;;;;;;;;;;5092543;28;20054;-68
2022/03/30 00:10:43;;;;;;;11.57;2.90;;;;;;;;;;5075638;28;20048;-69
2022/03/30 00:13:09;;;;;;;9.38;2.78;;;;;;;;;;5090813;28;20377;-68
2022/03/30 00:15:35;;;;;;;12.07;3.00;;;;;;;;;;5083457;28;20039;-69
2022/03/30 00:18:01;;;;;;;10.63;2.75;;;;;;;;;;5081597;28;20059;-68
2022/03/30 00:20:27;;;;;;;11.20;2.80;;;;;;;;;;5082280;28;20039;-68
2022/03/30 00:22:53;;;;;;;9.27;2.53;;;;;;;;;;5082443;28;20466;-69
2022/03/30 00:25:20;;;;;;;11.07;2.70;;;;;;;;;;5076372;28;20033;-69
2022/03/30 00:27:46;;;;;;;10.02;3.10;;;;;;;;;;5073434;28;20104;-68
2022/03/30 00:30:13;;;;;;;11.65;3.03;;;;;;;;;;5076841;28;20111;-68
2022/03/30 00:32:40;;;;;;;11.35;2.72;;;;;;;;;;5079934;28;20394;-68
2022/03/30 00:35:07;;;;;;;10.43;3.10;;;;;;;;;;5082912;28;20056;-68
2022/03/30 00:37:33;;;;;;;18.63;3.50;;;;;;;;;;5081332;28;20103;-68
2022/03/30 00:39:59;;;;;;;10.85;2.97;;;;;;;;;;5077608;28;20091;-68
2022/03/30 00:42:25;;;;;;;9.25;2.80;;;;;;;;;;5080838;28;20463;-68
2022/03/30 00:44:52;;;;;;;12.63;2.75;;;;;;;;;;5086421;28;20054;-68
2022/03/30 00:47:20;;;;;;;6.25;2.15;;;;;;;;;;5087900;28;20036;-68
2022/03/30 00:49:49;;;;;;;9.57;2.67;;;;;;;;;;5073704;28;20123;-68
2022/03/30 00:52:16;;;;;;;13.57;3.10;;;;;;;;;;5079974;28;20111;-69
2022/03/30 00:54:42;;;;;;;11.07;3.15;;;;;;;;;;5085669;28;20028;-68
2022/03/30 00:57:09;;;;;;;7.53;2.83;;;;;;;;;;5088569;28;20043;-68
2022/03/30 00:59:35;;;;;;;10.98;3.03;;;;;;;;;;5070990;28;20036;-69
2022/03/30 01:02:01;;;;;;;13.00;2.63;;;;;;;;;;5073493;28;20024;-69
2022/03/30 01:04:28;;;;;;;9.40;2.80;;;;;;;;;;5083920;28;20028;-68
2022/03/30 01:06:54;;;;;;;12.70;3.13;;;;;;;;;;5089293;28;20036;-68
2022/03/30 01:09:20;;;;;;;16.60;3.13;;;;;;;;;;5086869;28;20044;-68
2022/03/30 01:11:47;;;;;;;10.95;3.20;;;;;;;;;;5083727;28;20031;-68
2022/03/30 01:14:13;;;;;;;8.07;2.55;;;;;;;;;;5076835;28;20092;-68
2022/03/30 01:16:42;;;;;;;11.60;2.65;;;;;;;;;;5077158;28;20035;-69
2022/03/30 01:19:09;;;;;;;6.75;2.70;;;;;;;;;;5080800;28;20486;-68
2022/03/30 01:21:39;;;;;;;8.02;2.85;;;;;;;;;;5080784;28;20449;-68
2022/03/30 01:24:06;;;;;;;9.48;3.40;;;;;;;;;;5080490;28;20039;-68
2022/03/30 01:26:32;;;;;;;8.73;2.88;;;;;;;;;;5079245;28;20417;-68
2022/03/30 01:28:58;;;;;;;10.07;2.70;;;;;;;;;;5077702;28;20024;-68
2022/03/30 01:34:09;;;;;;;12.18;2.90;;;;;;;;;;5075273;28;20031;-68
2022/03/30 01:36:35;;;;;;;8.63;2.60;;;;;;;;;;5074883;28;20036;-69
2022/03/30 01:39:02;;;;;;;12.63;3.47;;;;;;;;;;5084738;28;20028;-68
2022/03/30 01:41:29;;;;;;;11.68;3.25;;;;;;;;;;5085582;28;20402;-69
2022/03/30 01:43:56;;;;;;;9.63;3.00;;;;;;;;;;5081970;28;20074;-68
2022/03/30 01:46:22;;;;;;;12.90;3.17;;;;;;;;;;5089295;28;20028;-68
2022/03/30 01:48:48;;;;;;;12.73;3.35;;;;;;;;;;5081824;28;20020;-69
2022/03/30 01:51:14;;;;;;;14.93;3.33;;;;;;;;;;5072844;28;20025;-68
2022/03/30 01:53:40;;;;;;;13.50;3.30;;;;;;;;;;5078516;28;20140;-68
2022/03/30 01:56:06;;;;;;;10.73;3.35;;;;;;;;;;5081783;28;20665;-69
2022/03/30 01:58:32;;;;;;;13.60;3.20;;;;;;;;;;5070531;28;20165;-69
2022/03/30 02:00:58;;;;;;;11.77;3.00;;;;;;;;;;5076179;28;20047;-68
2022/03/30 02:03:27;;;;;;;10.10;2.97;;;;;;;;;;5086639;28;20039;-69
2022/03/30 02:05:54;;;;;;;10.55;3.15;;;;;;;;;;5081919;28;20020;-68
2022/03/30 02:08:20;;;;;;;8.68;2.88;;;;;;;;;;5075094;28;20438;-68
2022/03/30 02:10:46;;;;;;;9.20;3.33;;;;;;;;;;5081303;28;20033;-68
2022/03/30 02:13:12;;;;;;;6.03;2.83;;;;;;;;;;5079812;28;20512;-68
2022/03/30 02:15:38;;;;;;;13.98;2.88;;;;;;;;;;5087979;28;20043;-69
2022/03/30 02:18:07;;;;;;;11.77;3.17;;;;;;;;;;5083296;28;20028;-69
2022/03/30 02:20:33;;;;;;;12.30;3.85;;;;;;;;;;5081436;28;20501;-69
2022/03/30 02:22:59;;;;;;;8.55;3.13;;;;;;;;;;5083907;28;20119;-68
2022/03/30 02:25:26;;;;;;;17.70;3.28;;;;;;;;;;5077572;28;20456;-68
2022/03/30 02:27:52;;;;;;;13.98;3.15;;;;;;;;;;5084723;28;20422;-68
2022/03/30 02:30:18;;;;;;;10.48;3.53;;;;;;;;;;5078000;28;20021;-68
2022/03/30 02:32:44;;;;;;;13.00;3.42;;;;;;;;;;5080439;28;20032;-68
2022/03/30 02:35:10;;;;;;;10.32;2.90;;;;;;;;;;5075251;28;20020;-67
2022/03/30 02:37:36;;;;;;;14.15;3.00;;;;;;;;;;5079196;28;20031;-68
2022/03/30 02:40:02;;;;;;;14.18;3.58;;;;;;;;;;5083835;28;20404;-67
2022/03/30 02:42:28;;;;;;;10.35;3.45;;;;;;;;;;5078084;28;20027;-68
2022/03/30 02:44:54;;;;;;;9.77;3.25;;;;;;;;;;5076489;28;20013;-68
2022/03/30 02:48:17;;;;;;;18.92;3.65;;;;;;;;;;5071824;28;20360;-67
2022/03/30 02:50:06;;;;;;;10.60;3.17;;;;;;;;;;5081785;28;20033;-67
2022/03/30 02:52:32;;;;;;;11.00;3.50;;;;;;;;;;5071610;28;20029;-68
2022/03/30 02:54:57;;;;;;;13.02;3.08;;;;;;;;;;5069644;28;20086;-68
2022/03/30 02:57:24;;;;;;;8.80;3.13;;;;;;;;;;5080059;28;20060;-68
2022/03/30 02:59:49;;;;;;;10.85;3.40;;;;;;;;;;5080681;28;20024;-67
2022/03/30 03:02:15;;;;;;;9.88;3.13;;;;;;;;;;5078020;28;20097;-68
2022/03/30 03:04:41;;;;;;;11.18;3.17;;;;;;;;;;5074896;28;20514;-68
2022/03/30 03:07:08;;;;;;;10.52;2.95;;;;;;;;;;5079313;28;20128;-68
2022/03/30 03:09:34;;;;;;;11.73;3.20;;;;;;;;;;5079722;28;20048;-68
2022/03/30 03:11:59;;;;;;;13.05;4.05;;;;;;;;;;5083724;28;20069;-68
2022/03/30 03:14:25;;;;;;;13.13;3.50;;;;;;;;;;5076096;28;20428;-68
2022/03/30 03:16:51;;;;;;;10.05;3.17;;;;;;;;;;5086979;28;20028;-68
2022/03/30 03:19:17;;;;;;;9.13;3.20;;;;;;;;;;5088079;28;20436;-68
2022/03/30 03:21:43;;;;;;;10.02;3.05;;;;;;;;;;5076417;28;20031;-69
2022/03/30 03:24:09;;;;;;;9.93;3.40;;;;;;;;;;5077394;28;20446;-69
2022/03/30 03:26:35;;;;;;;10.60;3.22;;;;;;;;;;5069434;28;20036;-68
2022/03/30 03:29:02;;;;;;;11.35;3.40;;;;;;;;;;5077042;28;20111;-69
2022/03/30 03:31:27;;;;;;;15.00;3.72;;;;;;;;;;5080414;28;20036;-69
2022/03/30 03:33:53;;;;;;;10.80;3.45;;;;;;;;;;5081456;28;20024;-69
2022/03/30 03:36:20;;;;;;;12.57;3.30;;;;;;;;;;5079398;28;20073;-69
2022/03/30 03:38:45;;;;;;;14.75;3.45;;;;;;;;;;5081497;28;20081;-70
2022/03/30 03:41:11;;;;;;;11.90;3.85;;;;;;;;;;5068846;28;20697;-69
2022/03/30 03:43:38;;;;;;;9.75;3.50;;;;;;;;;;5081287;28;20028;-69
2022/03/30 03:46:04;;;;;;;16.80;3.30;;;;;;;;;;5088621;28;20059;-69
2022/03/30 03:48:30;;;;;;;14.40;3.17;;;;;;;;;;5082359;28;20054;-69
2022/03/30 03:50:56;;;;;;;22.27;2.92;;;;;;;;;;5079810;28;20605;-70
2022/03/30 03:53:22;;;;;;;12.93;4.32;;;;;;;;;;5078914;28;20016;-68
2022/03/30 03:55:48;;;;;;;12.43;3.40;;;;;;;;;;5086303;28;20085;-69
2022/03/30 03:58:14;;;;;;;13.02;3.00;;;;;;;;;;5079047;28;20124;-69
2022/03/30 04:00:40;;;;;;;16.48;3.67;;;;;;;;;;5081514;28;20028;-70
2022/03/30 04:03:06;;;;;;;18.98;3.63;;;;;;;;;;5088696;28;20035;-69
2022/03/30 04:05:32;;;;;;;12.82;2.70;;;;;;;;;;5081316;28;20383;-68
2022/03/30 04:07:58;;;;;;;12.13;3.40;;;;;;;;;;5084719;28;20016;-69
2022/03/30 04:10:24;;;;;;;13.05;3.60;;;;;;;;;;5076525;28;20080;-68
2022/03/30 04:12:50;;;;;;;14.57;3.50;;;;;;;;;;5075922;28;20060;-69
2022/03/30 04:15:16;;;;;;;13.75;3.42;;;;;;;;;;5074800;28;20185;-68
2022/03/30 04:17:44;;;;;;;18.77;3.78;;;;;;;;;;5083151;28;20514;-69
2022/03/30 04:20:10;;;;;;;12.70;3.03;;;;;;;;;;5089906;28;20146;-69
2022/03/30 04:22:35;;;;;;;13.18;3.15;;;;;;;;;;5082960;28;20383;-69
2022/03/30 04:25:01;;;;;;;15.35;3.63;;;;;;;;;;5075322;28;20032;-69
2022/03/30 04:27:27;;;;;;;16.58;3.90;;;;;;;;;;5080884;28;20024;-69
2022/03/30 04:29:53;;;;;;;22.63;4.45;;;;;;;;;;5077814;28;20135;-69
2022/03/30 04:32:19;;;;;;;12.52;2.92;;;;;;;;;;5081784;28;20107;-69
2022/03/30 04:34:45;;;;;;;17.63;3.47;;;;;;;;;;5080678;28;20515;-69
2022/03/30 04:37:11;;;;;;;14.73;3.30;;;;;;;;;;5081626;28;20131;-69
2022/03/30 04:39:37;;;;;;;15.27;3.38;;;;;;;;;;5084454;28;20047;-69
2022/03/30 04:42:06;;;;;;;17.70;2.95;;;;;;;;;;5081052;28;20382;-69
2022/03/30 04:44:32;;;;;;;14.82;3.50;;;;;;;;;;5082717;28;20040;-70
2022/03/30 04:46:59;;;;;;;12.02;3.10;;;;;;;;;;5080271;28;20112;-72
2022/03/30 04:49:28;;;;;;;8.68;2.75;;;;;;;;;;5084798;28;20047;-71
2022/03/30 04:51:54;;;;;;;13.48;3.22;;;;;;;;;;5077910;28;20513;-69
2022/03/30 04:54:20;;;;;;;17.27;3.17;;;;;;;;;;5082555;28;20028;-69
2022/03/30 04:56:47;;;;;;;13.95;3.80;;;;;;;;;;5083472;28;20031;-69
2022/03/30 04:59:13;;;;;;;11.57;3.25;;;;;;;;;;5085563;28;20036;-69
2022/03/30 05:01:39;;;;;;;15.23;3.20;;;;;;;;;;5080542;28;20386;-69
2022/03/30 05:04:06;;;;;;;17.52;3.42;;;;;;;;;;5081304;28;20039;-68
2022/03/30 05:06:32;;;;;;;15.40;3.30;;;;;;;;;;5074904;28;20032;-69
2022/03/30 05:08:58;;;;;;;17.85;3.65;;;;;;;;;;5080809;28;20051;-69
2022/03/30 05:11:24;;;;;;;14.32;3.22;;;;;;;;;;5084589;28;20021;-69
2022/03/30 05:13:50;;;;;;;12.23;3.08;;;;;;;;;;5081358;28;20383;-69
2022/03/30 05:16:16;;;;;;;11.32;3.22;;;;;;;;;;5079135;28;20028;-69
2022/03/30 05:18:42;;;;;;;11.05;3.03;;;;;;;;;;5084986;28;20018;-69
2022/03/30 05:21:08;;;;;;;20.95;3.40;;;;;;;;;;5077132;28;20402;-68
2022/03/30 05:23:36;;;;;;;16.58;3.08;;;;;;;;;;5085150;28;20078;-69
2022/03/30 05:26:03;;;;;;;10.77;2.90;;;;;;;;;;5083251;28;20035;-69
2022/03/30 05:28:28;;;;;;;16.65;3.70;;;;;;;;;;5081390;28;20090;-69
2022/03/30 05:30:54;;;;;;;14.55;3.45;;;;;;;;;;5090576;28;20051;-69
2022/03/30 05:33:20;;;;;;;13.05;3.90;;;;;;;;;;5076406;28;20023;-68
2022/03/30 05:35:48;;;;;;;11.65;3.25;;;;;;;;;;5087481;28;20040;-68
2022/03/30 05:38:14;;;;;;;14.18;3.10;;;;;;;;;;5092972;28;20027;-69
2022/03/30 05:40:39;;;;;;;15.80;3.28;;;;;;;;;;5078143;28;20028;-70
2022/03/30 05:43:05;;;;;;;12.25;2.90;;;;;;;;;;5093100;28;20024;-68
2022/03/30 05:45:31;;;;;;;13.32;3.88;;;;;;;;;;5069722;28;20510;-72
2022/03/30 05:47:57;;;;;;;9.27;3.08;;;;;;;;;;5076480;28;20028;-72
2022/03/30 05:50:23;;;;;;;16.45;3.65;;;;;;;;;;5084816;28;20046;-74
2022/03/30 05:52:51;;;;;;;15.38;4.60;;;;;;;;;;5075900;28;20119;-68
2022/03/30 05:55:17;;;;;;;80.97;28.27;;;;;;;;;;5080309;28;20035;-71
2022/03/30 05:57:43;;;;;;;72.55;23.85;;;;;;;;;;5071061;28;20415;-70
2022/03/30 06:00:10;;;;;;;33.58;8.77;;;;;;;;;;5070828;28;20024;-69
2022/03/30 06:02:37;;;;;;;23.58;7.43;;;;;;;;;;5076941;28;20104;-69
2022/03/30 06:05:03;;;;;;;21.13;6.25;;;;;;;;;;5075585;28;20016;-69
2022/03/30 06:07:29;;;;;;;17.30;6.03;;;;;;;;;;5070205;28;20033;-68
2022/03/30 06:09:55;;;;;;;23.77;6.25;;;;;;;;;;5074301;28;20044;-68
2022/03/30 06:12:23;;;;;;;27.30;7.38;;;;;;;;;;5077908;28;20385;-72
2022/03/30 06:14:49;;;;;;;24.55;8.02;;;;;;;;;;5077224;28;20501;-68
2022/03/30 06:17:17;;;;;;;28.35;7.72;;;;;;;;;;5079186;28;20051;-68
2022/03/30 06:19:45;;;;;;;13.35;5.30;;;;;;;;;;5084922;28;20391;-68
2022/03/30 06:22:11;;;;;;;14.80;4.80;;;;;;;;;;5079766;28;20029;-68
2022/03/30 06:24:38;;;;;;;16.25;4.47;;;;;;;;;;5080660;28;20054;-69
2022/03/30 06:27:07;;;;;;;14.77;4.10;;;;;;;;;;5082493;28;20032;-68
2022/03/30 06:29:33;;;;;;;12.85;4.00;;;;;;;;;;5083581;28;20012;-68
2022/03/30 06:31:59;;;;;;;20.08;3.28;;;;;;;;;;5087611;28;20103;-68
2022/03/30 06:34:25;;;;;;;14.90;3.40;;;;;;;;;;5087109;28;20569;-68
2022/03/30 06:36:51;;;;;;;13.63;3.03;;;;;;;;;;5073338;28;20132;-68
2022/03/30 06:39:17;;;;;;;19.50;3.50;;;;;;;;;;5079698;28;20028;-67
2022/03/30 06:41:44;;;;;;;14.20;2.90;;;;;;;;;;5085793;28;20056;-68
2022/03/30 06:44:10;;;;;;;14.50;2.83;;;;;;;;;;5075868;28;20514;-69
2022/03/30 06:46:38;;;;;;;15.25;2.92;;;;;;;;;;5082462;28;20031;-70
2022/03/30 06:49:05;;;;;;;14.18;2.95;;;;;;;;;;5082007;28;20032;-69
2022/03/30 06:51:31;;;;;;;12.35;3.22;;;;;;;;;;5086638;28;20076;-68
2022/03/30 06:53:57;;;;;;;20.77;3.45;;;;;;;;;;5079453;28;20032;-68
2022/03/30 06:56:23;;;;;;;12.38;3.38;;;;;;;;;;5074469;28;20032;-69
2022/03/30 06:58:50;;;;;;;11.35;2.80;;;;;;;;;;5089082;28;20101;-69
2022/03/30 07:01:16;;;;;;;16.67;3.38;;;;;;;;;;5078820;28;20090;-71
2022/03/30 07:03:42;;;;;;;11.52;3.28;;;;;;;;;;5074792;28;21286;-69
2022/03/30 07:06:08;;;;;;;17.50;3.28;;;;;;;;;;5087540;28;20067;-72
2022/03/30 07:11:19;;;;;;;19.92;3.85;;;;;;;;;;5078837;28;20392;-71
2022/03/30 07:13:45;;;;;;;20.55;3.53;;;;;;;;;;5080817;28;20016;-72
2022/03/30 07:16:11;;;;;;;16.08;3.53;;;;;;;;;;5084365;28;20156;-72
2022/03/30 07:18:37;;;;;;;18.35;4.22;;;;;;;;;;5086002;28;20445;-72
2022/03/30 07:21:03;;;;;;;15.65;3.72;;;;;;;;;;5084630;28;20057;-71
2022/03/30 07:23:29;;;;;;;14.43;3.53;;;;;;;;;;5078391;28;20032;-72
2022/03/30 07:25:56;;;;;;;12.20;3.40;;;;;;;;;;5076837;28;20055;-72
2022/03/30 07:28:22;;;;;;;19.70;2.80;;;;;;;;;;5085928;28;20152;-71
2022/03/30 07:30:48;;;;;;;16.60;2.92;;;;;;;;;;5087832;28;20038;-72
2022/03/30 07:33:16;;;;;;;15.45;2.58;;;;;;;;;;5083753;28;20107;-72
2022/03/30 07:35:46;;;;;;;12.23;2.67;;;;;;;;;;5091842;28;20031;-72
2022/03/30 07:38:13;;;;;;;13.32;2.72;;;;;;;;;;5091145;28;20122;-72
2022/03/30 07:40:38;;;;;;;11.88;2.80;;;;;;;;;;5078789;28;20024;-72
2022/03/30 07:43:05;;;;;;;11.80;2.97;;;;;;;;;;5089776;28;20046;-71
2022/03/30 07:45:31;;;;;;;7.97;2.58;;;;;;;;;;5089662;28;20028;-72
2022/03/30 07:47:57;;;;;;;10.60;3.17;;;;;;;;;;5085309;28;20534;-71
2022/03/30 07:50:23;;;;;;;16.02;2.92;;;;;;;;;;5091989;28;20099;-72
2022/03/30 07:52:50;;;;;;;15.82;3.10;;;;;;;;;;5091931;28;20035;-71
2022/03/30 07:55:16;;;;;;;13.68;3.63;;;;;;;;;;5077569;28;20024;-72
2022/03/30 07:57:42;;;;;;;16.40;4.28;;;;;;;;;;5085537;28;20455;-72
2022/03/30 08:00:09;;;;;;;16.02;3.53;;;;;;;;;;5091856;28;20177;-71
2022/03/30 08:02:35;;;;;;;13.10;3.10;;;;;;;;;;5091783;28;20081;-72
2022/03/30 08:05:01;;;;;;;8.05;2.17;;;;;;;;;;5087789;28;20111;-71
2022/03/30 08:07:30;;;;;;;10.07;2.35;;;;;;;;;;5090523;28;20493;-71
2022/03/30 08:09:56;;;;;;;8.88;2.13;;;;;;;;;;5083470;28;20043;-71
2022/03/30 08:12:22;;;;;;;6.70;2.10;;;;;;;;;;5091728;28;20036;-71
2022/03/30 08:14:48;;;;;;;12.32;2.03;;;;;;;;;;5092886;28;20024;-71
2022/03/30 08:17:26;;;;;;;7.65;2.03;;;;;;;;;;5082759;28;20674;-71
2022/03/30 08:19:54;;;;;;;7.30;2.03;;;;;;;;;;5076992;28;20035;-72
2022/03/30 08:22:25;;;;;;;10.40;2.47;;;;;;;;;;5089858;28;20034;-73
2022/03/30 08:24:52;;;;;;;11.23;2.08;;;;;;;;;;5089556;28;20452;-73
2022/03/30 08:27:19;;;;;;;9.07;2.45;;;;;;;;;;5079443;28;20024;-72
2022/03/30 08:29:46;;;;;;;11.05;2.15;;;;;;;;;;5087637;28;20027;-72
2022/03/30 08:32:13;;;;;;;6.82;2.05;;;;;;;;;;5080005;28;20016;-72
2022/03/30 08:34:39;;;;;;;9.55;2.33;;;;;;;;;;5077324;28;20640;-72
2022/03/30 08:37:05;;;;;;;11.45;2.20;;;;;;;;;;5081118;28;20134;-73
2022/03/30 08:39:32;;;;;;;9.95;2.33;;;;;;;;;;5085360;28;20103;-73
2022/03/30 08:41:58;;;;;;;13.52;2.42;;;;;;;;;;5087811;28;20555;-72
2022/03/30 08:44:25;;;;;;;10.35;2.22;;;;;;;;;;5084220;28;20115;-72
2022/03/30 08:46:51;;;;;;;7.00;2.33;;;;;;;;;;5084417;28;20050;-73
2022/03/30 08:49:17;;;;;;;7.30;2.28;;;;;;;;;;5088280;28;20454;-72
2022/03/30 08:51:47;;;;;;;7.03;2.35;;;;;;;;;;5088101;28;20059;-72
2022/03/30 08:54:14;;;;;;;11.55;1.80;;;;;;;;;;5087736;28;20024;-73
2022/03/30 08:56:40;;;;;;;11.48;2.03;;;;;;;;;;5085617;28;20032;-72
2022/03/30 08:59:07;;;;;;;14.27;2.33;;;;;;;;;;5090673;28;20020;-72
2022/03/30 09:01:34;;;;;;;8.50;2.05;;;;;;;;;;5087199;28;20095;-72
2022/03/30 09:04:01;;;;;;;9.48;2.05;;;;;;;;;;5087027;28;20020;-73
2022/03/30 09:06:30;;;;;;;5.85;1.80;;;;;;;;;;5086485;28;20530;-72
2022/03/30 09:08:57;;;;;;;12.50;1.95;;;;;;;;;;5082599;28;20044;-72
2022/03/30 09:11:26;;;;;;;9.55;2.25;;;;;;;;;;5089235;28;20044;-73
2022/03/30 09:14:02;;;;;;;6.60;1.98;;;;;;;;;;5090629;28;20016;-71
2022/03/30 09:16:36;;;;;;;6.55;1.95;;;;;;;;;;5085951;28;20089;-72
2022/03/30 09:19:03;;;;;;;11.75;2.22;;;;;;;;;;5085528;28;20042;-72
2022/03/30 09:21:46;;;;;;;13.10;2.30;;;;;;;;;;5088308;28;20122;-73
2022/03/30 09:24:12;;;;;;;9.98;1.83;;;;;;;;;;5099238;28;20024;-73
2022/03/30 09:26:39;;;;;;;9.45;2.40;;;;;;;;;;5096155;28;20115;-73
2022/03/30 09:29:05;;;;;;;8.32;1.90;;;;;;;;;;5091303;28;20031;-73
2022/03/30 09:31:31;;;;;;;6.15;1.88;;;;;;;;;;5088367;28;20019;-73
2022/03/30 09:34:04;;;;;;;7.60;1.98;;;;;;;;;;5098579;28;20376;-73
2022/03/30 09:36:31;;;;;;;7.63;1.85;;;;;;;;;;5076959;28;20059;-70
2022/03/30 09:38:58;;;;;;;8.68;1.65;;;;;;;;;;5094378;28;20020;-71
2022/03/30 09:41:24;;;;;;;10.60;2.05;;;;;;;;;;5081859;28;20038;-71
2022/03/30 09:44:01;;;;;;;7.75;1.88;;;;;;;;;;5093963;28;20114;-72
2022/03/30 09:46:27;;;;;;;4.60;1.67;;;;;;;;;;5091393;28;20038;-72
2022/03/30 09:48:53;;;;;;;6.55;1.83;;;;;;;;;;5090532;28;20021;-73
2022/03/30 09:51:20;;;;;;;7.90;2.05;;;;;;;;;;5083671;28;20069;-71
2022/03/30 09:53:47;;;;;;;8.95;2.42;;;;;;;;;;5085628;28;20024;-71
2022/03/30 09:56:17;;;;;;;11.02;2.08;;;;;;;;;;5084826;28;20110;-70
2022/03/30 09:58:43;;;;;;;7.22;1.88;;;;;;;;;;5101026;28;20035;-69
2022/03/30 10:01:14;;;;;;;7.97;2.25;;;;;;;;;;5089171;28;20031;-69
2022/03/30 10:03:50;;;;;;;7.53;1.97;;;;;;;;;;5068831;28;20483;-69
2022/03/30 10:06:18;;;;;;;9.02;2.38;;;;;;;;;;5085944;28;20036;-69
2022/03/30 10:08:45;;;;;;;7.07;2.13;;;;;;;;;;5089361;28;20637;-69
2022/03/30 10:11:12;;;;;;;10.57;2.05;;;;;;;;;;5083475;28;20119;-69
2022/03/30 10:13:39;;;;;;;8.25;2.25;;;;;;;;;;5067810;28;20107;-69
2022/03/30 10:16:06;;;;;;;9.70;1.90;;;;;;;;;;5079798;28;20445;-68
2022/03/30 10:18:32;;;;;;;10.68;2.05;;;;;;;;;;5076623;28;20032;-69
2022/03/30 10:21:15;;;;;;;6.15;1.85;;;;;;;;;;5081978;28;20036;-69
2022/03/30 10:23:52;;;;;;;9.02;2.58;;;;;;;;;;5081855;28;20054;-69
2022/03/30 10:26:38;;;;;;;7.25;1.88;;;;;;;;;;5085621;28;20152;-68
2022/03/30 10:29:09;;;;;;;7.80;1.85;;;;;;;;;;5032026;28;20055;-69
2022/03/30 10:31:35;;;;;;;6.07;1.98;;;;;;;;;;5081407;28;20040;-69
2022/03/30 10:34:20;;;;;;;5.55;1.80;;;;;;;;;;5088386;28;20021;-68
2022/03/30 10:36:58;;;;;;;5.82;2.00;;;;;;;;;;5087938;28;20124;-68
2022/03/30 10:39:27;;;;;;;8.15;1.95;;;;;;;;;;5073357;28;20029;-68
2022/03/30 10:41:55;;;;;;;7.10;1.75;;;;;;;;;;5081752;28;20505;-69
2022/03/30 10:44:41;;;;;;;9.95;2.28;;;;;;;;;;5087708;28;20478;-69
2022/03/30 10:47:16;;;;;;;11.57;2.00;;;;;;;;;;5087796;28;20486;-67
2022/03/30 10:49:44;;;;;;;9.05;1.80;;;;;;;;;;5085699;28;20032;-68
2022/03/30 10:52:32;;;;;;;10.25;2.10;;;;;;;;;;5080237;28;20164;-68
2022/03/30 10:55:13;;;;;;;7.70;1.80;;;;;;;;;;5086680;28;20031;-68
2022/03/30 10:57:50;;;;;;;5.72;1.65;;;;;;;;;;5087903;28;20028;-69
2022/03/30 11:00:36;;;;;;;8.00;1.35;;;;;;;;;;5077767;28;20066;-69
2022/03/30 11:03:21;;;;;;;4.95;1.80;;;;;;;;;;5083376;28;20059;-68
2022/03/30 11:05:59;;;;;;;4.30;1.65;;;;;;;;;;5085685;28;20044;-69
2022/03/30 11:08:35;;;;;;;7.35;1.70;;;;;;;;;;5087343;28;20390;-69
2022/03/30 11:11:01;;;;;;;6.53;2.08;;;;;;;;;;5052638;28;983475;-68
2022/03/30 11:13:28;;;;;;;8.00;1.80;;;;;;;;;;5088596;28;20141;-68
2022/03/30 11:15:59;;;;;;;7.88;2.10;;;;;;;;;;5088105;28;20032;-68
2022/03/30 11:18:28;;;;;;;5.40;1.98;;;;;;;;;;5078005;28;20028;-69
2022/03/30 11:21:13;;;;;;;7.43;1.90;;;;;;;;;;5076263;28;20390;-68
2022/03/30 11:23:39;;;;;;;5.68;1.90;;;;;;;;;;5088704;28;20390;-68
2022/03/30 11:26:05;;;;;;;7.65;2.00;;;;;;;;;;5083283;28;20058;-69
2022/03/30 11:28:40;;;;;;;8.82;1.83;;;;;;;;;;5069965;28;20031;-69
2022/03/30 11:31:19;;;;;;;10.02;2.38;;;;;;;;;;5088425;28;20024;-69
2022/03/30 11:33:45;;;;;;;10.35;2.08;;;;;;;;;;5088001;28;20661;-69
2022/03/30 11:36:11;;;;;;;5.70;1.92;;;;;;;;;;5087155;28;20128;-68
2022/03/30 11:38:39;;;;;;;8.57;2.17;;;;;;;;;;5078674;28;20032;-69
2022/03/30 11:41:06;;;;;;;8.00;1.58;;;;;;;;;;5088246;28;20028;-69
2022/03/30 11:45:12;;;;;;;9.55;2.10;;;;;;;;;;5088293;28;20051;-69
2022/03/30 11:46:26;;;;;;;6.72;1.92;;;;;;;;;;5087671;28;20242;-69
2022/03/30 11:48:53;;;;;;;5.32;1.73;;;;;;;;;;5078914;28;20089;-69
2022/03/30 11:51:25;;;;;;;8.38;2.28;;;;;;;;;;5081185;28;20032;-69
2022/03/30 11:53:50;;;;;;;7.72;2.35;;;;;;;;;;5088914;28;20489;-68
2022/03/30 11:56:16;;;;;;;6.18;2.30;;;;;;;;;;5088132;28;20032;-69
2022/03/30 11:58:49;;;;;;;12.95;2.20;;;;;;;;;;5084287;28;20020;-68
2022/03/30 12:01:16;;;;;;;11.35;2.45;;;;;;;;;;5087101;28;20043;-69
2022/03/30 12:03:43;;;;;;;5.70;2.25;;;;;;;;;;5087797;28;20060;-69
2022/03/30 12:06:10;;;;;;;6.85;2.03;;;;;;;;;;5088273;28;20024;-68
2022/03/30 12:08:43;;;;;;;5.47;1.92;;;;;;;;;;5087590;28;20077;-69
2022/03/30 12:11:09;;;;;;;8.18;2.55;;;;;;;;;;5081640;28;20074;-69
2022/03/30 12:13:35;;;;;;;7.18;2.58;;;;;;;;;;5090576;28;20509;-69
2022/03/30 12:16:02;;;;;;;6.95;2.80;;;;;;;;;;5087007;28;20028;-69
2022/03/30 12:18:29;;;;;;;8.25;2.38;;;;;;;;;;5081461;28;20568;-69
2022/03/30 12:20:55;;;;;;;8.38;2.85;;;;;;;;;;5089395;28;20020;-69
2022/03/30 12:23:21;;;;;;;7.40;2.83;;;;;;;;;;5081171;28;20039;-68
2022/03/30 12:25:48;;;;;;;7.47;3.00;;;;;;;;;;5089957;28;20028;-69
2022/03/30 12:28:18;;;;;;;9.68;3.03;;;;;;;;;;5090149;28;20028;-69
2022/03/30 12:30:44;;;;;;;6.25;2.95;;;;;;;;;;5090749;28;20059;-69
2022/03/30 12:33:10;;;;;;;7.70;3.03;;;;;;;;;;5091361;28;20020;-69
2022/03/30 12:35:38;;;;;;;9.15;3.33;;;;;;;;;;5085282;28;20020;-69
2022/03/30 12:38:39;;;;;;;6.95;3.13;;;;;;;;;;5088509;28;20441;-70
2022/03/30 12:41:05;;;;;;;8.38;3.42;;;;;;;;;;5018667;28;20413;-70
2022/03/30 12:43:34;;;;;;;8.43;3.45;;;;;;;;;;5061160;28;20114;-70
2022/03/30 12:46:02;;;;;;;6.90;3.28;;;;;;;;;;5087057;28;20023;-70
2022/03/30 12:48:29;;;;;;;7.45;3.50;;;;;;;;;;5087882;28;20051;-70
2022/03/30 12:50:59;;;;;;;11.68;3.88;;;;;;;;;;5079989;28;20036;-69
2022/03/30 12:53:29;;;;;;;12.48;3.45;;;;;;;;;;5075389;28;20047;-70
2022/03/30 12:55:55;;;;;;;8.75;3.17;;;;;;;;;;5077957;28;20032;-70
2022/03/30 12:58:24;;;;;;;8.98;3.67;;;;;;;;;;5091818;28;20457;-70
2022/03/30 13:00:52;;;;;;;7.90;3.92;;;;;;;;;;5080504;28;20023;-71
2022/03/30 13:03:19;;;;;;;11.75;3.58;;;;;;;;;;5088914;28;20120;-69
2022/03/30 13:05:46;;;;;;;6.60;3.08;;;;;;;;;;5083479;28;20032;-69
2022/03/30 13:08:17;;;;;;;5.95;2.72;;;;;;;;;;5090533;28;20103;-69
2022/03/30 13:10:57;;;;;;;12.43;2.87;;;;;;;;;;5086675;28;20044;-70
2022/03/30 13:13:30;;;;;;;7.05;2.63;;;;;;;;;;5082584;28;20271;-70
2022/03/30 13:16:09;;;;;;;7.53;2.83;;;;;;;;;;5093989;28;20035;-69
2022/03/30 13:18:36;;;;;;;6.53;2.80;;;;;;;;;;5092466;28;20478;-69
2022/03/30 13:21:06;;;;;;;13.25;3.95;;;;;;;;;;5088303;28;20032;-70
2022/03/30 13:23:33;;;;;;;9.70;2.95;;;;;;;;;;5087395;28;20459;-70
2022/03/30 13:26:00;;;;;;;7.97;3.28;;;;;;;;;;5080057;28;20040;-70
2022/03/30 13:28:26;;;;;;;11.30;3.28;;;;;;;;;;5089661;28;20039;-70
2022/03/30 13:30:52;;;;;;;8.13;2.63;;;;;;;;;;5095258;28;20028;-70
2022/03/30 13:33:38;;;;;;;5.30;2.40;;;;;;;;;;5082920;28;20020;-72
2022/03/30 13:36:07;;;;;;;5.53;2.63;;;;;;;;;;5077650;28;20029;-73
2022/03/30 13:38:33;;;;;;;6.40;2.30;;;;;;;;;;5090336;28;20052;-70
2022/03/30 13:41:02;;;;;;;7.13;2.70;;;;;;;;;;5083278;28;20461;-70
2022/03/30 13:43:28;;;;;;;9.63;2.50;;;;;;;;;;5093912;28;20772;-71
2022/03/30 13:45:54;;;;;;;8.38;2.70;;;;;;;;;;5083095;28;20126;-71
2022/03/30 13:48:20;;;;;;;4.60;2.20;;;;;;;;;;5077316;28;20016;-72
2022/03/30 13:50:47;;;;;;;10.20;2.33;;;;;;;;;;5082279;28;20046;-69
2022/03/30 13:53:13;;;;;;;5.43;2.35;;;;;;;;;;5086989;28;20111;-69
2022/03/30 13:55:39;;;;;;;11.70;2.45;;;;;;;;;;5084439;28;20100;-68
2022/03/30 13:58:07;;;;;;;4.82;2.13;;;;;;;;;;5084940;28;20066;-69
2022/03/30 14:00:33;;;;;;;6.75;2.30;;;;;;;;;;5085054;28;20028;-69
2022/03/30 14:02:59;;;;;;;4.22;2.58;;;;;;;;;;5090197;28;20017;-68
2022/03/30 14:05:26;;;;;;;8.73;2.65;;;;;;;;;;5091362;28;20671;-69
2022/03/30 14:07:53;;;;;;;5.40;2.63;;;;;;;;;;5075729;28;20051;-69
2022/03/30 14:10:21;;;;;;;5.68;2.97;;;;;;;;;;5089787;28;20040;-70
2022/03/30 14:12:47;;;;;;;6.55;3.08;;;;;;;;;;5076993;28;20052;-71
2022/03/30 14:15:13;;;;;;;5.47;2.85;;;;;;;;;;5076612;28;20020;-69
2022/03/30 14:17:39;;;;;;;3.47;2.28;;;;;;;;;;5075651;28;20082;-71
2022/03/30 14:20:08;;;;;;;9.57;2.70;;;;;;;;;;5077659;28;20130;-71
2022/03/30 14:22:34;;;;;;;5.70;2.65;;;;;;;;;;5074962;28;20059;-68
2022/03/30 14:25:00;;;;;;;8.75;3.30;;;;;;;;;;5080455;28;20032;-69
2022/03/30 14:27:28;;;;;;;5.80;3.03;;;;;;;;;;5084634;28;20130;-70
2022/03/30 14:29:54;;;;;;;5.85;3.40;;;;;;;;;;5082067;28;20073;-69
2022/03/30 14:32:20;;;;;;;8.70;3.22;;;;;;;;;;5084600;28;20111;-69
2022/03/30 14:34:48;;;;;;;6.45;3.10;;;;;;;;;;5083284;28;20080;-69
2022/03/30 14:37:15;;;;;;;8.52;3.47;;;;;;;;;;5077598;28;20034;-69
2022/03/30 14:39:41;;;;;;;10.00;3.33;;;;;;;;;;5082242;28;20024;-69
2022/03/30 14:42:07;;;;;;;10.77;3.17;;;;;;;;;;5083989;28;20032;-69
2022/03/30 14:44:33;;;;;;;8.50;3.25;;;;;;;;;;5081525;28;20461;-69